createdAt,value
2019-03-21T00:04:28.797Z,99.90
2019-03-21T00:09:21.173Z,99.90
2019-03-21T00:14:16.937Z,99.90
2019-03-21T00:19:09.526Z,99.90
2019-03-21T00:24:02.157Z,99.90
2019-03-21T00:28:54.593Z,99.90
2019-03-21T00:33:47.334Z,99.90
2019-03-21T00:38:39.784Z,99.90
2019-03-21T00:43:32.122Z,99.90
2019-03-21T00:48:24.953Z,99.90
2019-03-21T00:53:17.657Z,99.90
2019-03-21T00:58:10.201Z,99.90
2019-03-21T01:03:03.828Z,99.90
2019-03-21T01:07:56.481Z,99.90
2019-03-21T01:12:49.071Z,99.90
2019-03-21T01:17:41.874Z,99.90
2019-03-21T01:22:34.378Z,99.90
2019-03-21T01:27:26.897Z,99.90
2019-03-21T01:32:19.605Z,99.90
2019-03-21T01:37:13.310Z,99.90
2019-03-21T01:42:06.249Z,99.90
2019-03-21T01:46:58.581Z,99.90
2019-03-21T01:51:51.170Z,99.90
2019-03-21T01:56:43.773Z,99.90
2019-03-21T02:01:36.708Z,99.90
2019-03-21T02:06:29.337Z,99.90
2019-03-21T02:11:21.794Z,99.90
2019-03-21T02:16:14.285Z,99.90
2019-03-21T02:21:06.842Z,99.90
2019-03-21T02:25:59.244Z,99.90
2019-03-21T02:30:53.147Z,99.90
2019-03-21T02:35:46.641Z,99.90
2019-03-21T02:40:39.048Z,99.90
2019-03-21T02:45:31.608Z,99.90
2019-03-21T02:50:33.249Z,99.90
2019-03-21T02:55:25.924Z,99.90
2019-03-21T03:00:21.300Z,99.90
2019-03-21T03:05:16.517Z,99.90
2019-03-21T03:10:23.679Z,99.90
2019-03-21T03:15:23.543Z,99.90
2019-03-21T03:20:17.847Z,99.90
2019-03-21T03:25:15.914Z,99.90
2019-03-21T03:30:15.054Z,99.90
2019-03-21T03:35:10.294Z,99.90
2019-03-21T03:40:03.256Z,99.90
2019-03-21T03:44:55.822Z,99.90
2019-03-21T03:49:48.205Z,99.90
2019-03-21T03:54:40.835Z,99.90
2019-03-21T03:59:33.552Z,99.90
2019-03-21T04:04:26.239Z,99.90
2019-03-21T04:09:18.965Z,99.90
2019-03-21T04:14:11.771Z,99.90
2019-03-21T04:19:04.187Z,99.90
2019-03-21T04:23:59.554Z,99.90
2019-03-21T04:28:50.546Z,99.90
2019-03-21T04:33:45.379Z,99.90
2019-03-21T04:38:37.773Z,99.90
2019-03-21T04:43:30.293Z,99.90
2019-03-21T04:48:22.685Z,99.90
2019-03-21T04:53:15.156Z,99.90
2019-03-21T04:58:07.334Z,99.90
2019-03-21T05:03:02.542Z,99.90
2019-03-21T05:07:55.016Z,99.90
2019-03-21T05:12:47.837Z,99.90
2019-03-21T05:17:40.585Z,99.90
2019-03-21T05:22:33.425Z,99.90
2019-03-21T05:27:25.926Z,99.90
2019-03-21T05:32:18.703Z,99.90
2019-03-21T05:41:55.771Z,99.90
2019-03-21T05:46:47.972Z,99.90
2019-03-21T05:51:40.510Z,99.90
2019-03-21T05:56:33.320Z,99.90
2019-03-21T06:01:28.998Z,99.90
2019-03-21T06:06:33.241Z,99.90
2019-03-21T06:11:25.841Z,99.90
2019-03-21T06:16:18.017Z,99.90
2019-03-21T06:21:22.785Z,99.90
2019-03-21T06:26:24.144Z,99.90
2019-03-21T06:31:16.784Z,99.90
2019-03-21T06:36:09.297Z,99.90
2019-03-21T06:41:01.605Z,99.90
2019-03-21T06:45:54.212Z,99.90
2019-03-21T06:50:46.970Z,99.90
2019-03-21T06:55:39.749Z,99.90
2019-03-21T07:00:32.137Z,99.90
2019-03-21T07:05:26.741Z,99.90
2019-03-21T07:10:18.729Z,99.90
2019-03-21T07:15:12.602Z,99.90
2019-03-21T07:20:07.458Z,99.90
2019-03-21T07:25:00.069Z,99.90
2019-03-21T07:29:52.497Z,99.90
2019-03-21T07:34:44.981Z,99.90
2019-03-21T07:39:37.293Z,99.90
2019-03-21T07:44:29.670Z,96.50
2019-03-21T07:49:22.075Z,90.60
2019-03-21T07:54:14.661Z,86.50
2019-03-21T07:59:07.290Z,73.10
2019-03-21T08:04:02.737Z,65.00
2019-03-21T08:08:54.202Z,59.30
2019-03-21T08:13:46.896Z,56.80
2019-03-21T08:18:39.421Z,54.80
2019-03-21T08:23:31.617Z,53.20
2019-03-21T08:28:24.325Z,48.50
2019-03-21T08:33:16.945Z,48.10
2019-03-21T08:38:09.648Z,46.10
2019-03-21T08:43:01.969Z,44.70
2019-03-21T08:47:54.569Z,42.50
2019-03-21T08:52:47.145Z,41.00
2019-03-21T08:57:39.440Z,37.60
2019-03-21T09:02:31.916Z,36.20
2019-03-21T09:07:25.054Z,35.70
2019-03-21T09:12:17.476Z,36.30
2019-03-21T09:17:09.945Z,38.40
2019-03-21T09:22:02.578Z,39.20
2019-03-21T09:26:55.551Z,34.90
2019-03-21T09:31:48.223Z,36.90
2019-03-21T09:36:40.634Z,36.40
2019-03-21T09:41:33.215Z,37.00
2019-03-21T09:46:25.884Z,36.50
2019-03-21T09:51:18.447Z,35.00
2019-03-21T09:56:10.610Z,34.50
2019-03-21T10:01:03.519Z,34.50
2019-03-21T10:05:55.966Z,34.90
2019-03-21T10:10:48.688Z,36.00
2019-03-21T10:15:41.168Z,35.70
2019-03-21T10:20:33.826Z,34.70
2019-03-21T10:25:26.989Z,34.20
2019-03-21T10:30:34.622Z,33.50
2019-03-21T10:35:27.055Z,33.60
2019-03-21T10:40:19.803Z,33.00
2019-03-21T10:45:12.324Z,32.50
2019-03-21T10:50:06.821Z,31.40
2019-03-21T10:54:59.538Z,31.20
2019-03-21T10:59:52.133Z,30.20
2019-03-21T11:04:44.950Z,30.40
2019-03-21T11:09:37.515Z,30.40
2019-03-21T11:14:30.093Z,28.70
2019-03-21T11:19:22.456Z,29.30
2019-03-21T11:24:15.122Z,29.30
2019-03-21T11:29:07.607Z,28.90
2019-03-21T11:33:59.921Z,28.70
2019-03-21T11:38:52.452Z,28.80
2019-03-21T11:43:45.277Z,28.40
2019-03-21T11:48:37.955Z,28.20
2019-03-21T11:53:30.696Z,28.00
2019-03-21T11:58:23.351Z,27.60
2019-03-21T12:03:16.008Z,28.50
2019-03-21T12:08:08.858Z,28.50
2019-03-21T12:13:01.533Z,27.70
2019-03-21T12:17:54.206Z,28.20
2019-03-21T12:22:47.452Z,28.80
2019-03-21T12:27:40.161Z,28.10
2019-03-21T12:32:32.776Z,28.00
2019-03-21T12:37:25.277Z,29.40
2019-03-21T12:42:17.817Z,28.70
2019-03-21T12:47:10.166Z,29.00
2019-03-21T12:52:02.566Z,28.70
2019-03-21T12:56:55.097Z,28.70
2019-03-21T13:01:47.686Z,28.50
2019-03-21T13:06:40.194Z,28.70
2019-03-21T13:11:32.593Z,28.80
2019-03-21T13:16:25.128Z,28.30
2019-03-21T13:21:17.641Z,28.60
2019-03-21T13:26:10.328Z,28.30
2019-03-21T13:31:02.803Z,28.60
2019-03-21T13:35:55.341Z,28.90
2019-03-21T13:40:47.748Z,28.90
2019-03-21T13:45:40.433Z,29.60
2019-03-21T13:50:32.818Z,30.20
2019-03-21T13:55:25.293Z,29.30
2019-03-21T14:00:20.213Z,29.10
2019-03-21T14:05:13.241Z,29.20
2019-03-21T14:10:08.726Z,30.60
2019-03-21T14:15:01.208Z,29.20
2019-03-21T14:19:53.817Z,29.60
2019-03-21T14:24:46.265Z,30.30
2019-03-21T14:29:38.433Z,30.00
2019-03-21T14:34:31.149Z,30.90
2019-03-21T14:39:23.413Z,31.80
2019-03-21T14:44:15.871Z,33.30
2019-03-21T14:49:08.265Z,33.60
2019-03-21T14:54:01.223Z,33.10
2019-03-21T14:58:53.579Z,34.20
2019-03-21T15:03:46.309Z,34.00
2019-03-21T15:08:38.630Z,34.40
2019-03-21T15:13:31.386Z,34.40
2019-03-21T15:18:24.018Z,36.20
2019-03-21T15:23:16.773Z,36.90
2019-03-21T15:28:09.473Z,37.80
2019-03-21T15:33:01.858Z,37.90
2019-03-21T15:37:54.244Z,38.60
2019-03-21T15:42:46.724Z,38.50
2019-03-21T15:47:39.471Z,38.00
2019-03-21T15:52:32.849Z,37.00
2019-03-21T15:57:25.304Z,36.50
2019-03-21T16:02:17.809Z,37.10
2019-03-21T16:07:10.528Z,37.50
2019-03-21T16:12:02.916Z,39.50
2019-03-21T16:16:55.608Z,40.50
2019-03-21T16:21:48.049Z,41.60
2019-03-21T16:26:42.613Z,43.20
2019-03-21T16:31:36.014Z,44.70
2019-03-21T16:36:28.495Z,45.30
2019-03-21T16:41:21.068Z,46.10
2019-03-21T16:46:13.726Z,46.60
2019-03-21T16:51:06.650Z,46.20
2019-03-21T16:55:58.822Z,46.70
2019-03-21T17:00:51.487Z,46.80
2019-03-21T17:05:44.073Z,47.40
2019-03-21T17:10:36.646Z,48.00
2019-03-21T17:15:28.882Z,48.20
2019-03-21T17:20:21.986Z,48.10
2019-03-21T17:25:14.867Z,48.00
2019-03-21T17:30:14.997Z,47.80
2019-03-21T17:35:07.697Z,48.00
2019-03-21T17:40:00.324Z,48.20
2019-03-21T17:44:54.515Z,48.30
2019-03-21T17:49:47.615Z,48.30
2019-03-21T17:54:41.836Z,48.60
2019-03-21T17:59:35.859Z,49.30
2019-03-21T18:04:30.608Z,49.50
2019-03-21T18:09:23.305Z,49.60
2019-03-21T18:14:15.703Z,50.00
2019-03-21T18:19:28.356Z,50.50
2019-03-21T18:24:21.832Z,51.00
2019-03-21T18:29:14.340Z,52.00
2019-03-21T18:34:07.568Z,54.30
2019-03-21T18:39:00.267Z,56.20
2019-03-21T18:43:53.546Z,59.70
2019-03-21T18:48:46.659Z,62.80
2019-03-21T18:53:39.183Z,66.10
2019-03-21T18:58:32.037Z,68.80
2019-03-21T19:03:24.555Z,71.10
2019-03-21T19:08:17.193Z,74.70
2019-03-21T19:13:09.973Z,79.20
2019-03-21T19:18:04.193Z,83.20
2019-03-21T19:22:56.999Z,86.40
2019-03-21T19:27:49.579Z,90.30
2019-03-21T19:32:43.982Z,91.30
2019-03-21T19:37:36.995Z,92.70
2019-03-21T19:42:31.505Z,94.00
2019-03-21T19:47:29.842Z,95.00
2019-03-21T19:52:19.584Z,96.00
2019-03-21T19:57:12.031Z,97.10
2019-03-21T20:02:04.697Z,98.20
2019-03-21T20:06:57.331Z,98.80
2019-03-21T20:11:50.061Z,99.20
2019-03-21T20:16:44.265Z,99.90
2019-03-21T20:21:47.316Z,99.90
2019-03-21T20:26:31.170Z,99.90
2019-03-21T20:31:28.763Z,99.90
2019-03-21T20:36:21.484Z,99.90
2019-03-21T20:41:15.277Z,99.90
2019-03-21T20:46:08.262Z,99.90
2019-03-21T20:51:00.986Z,99.90
2019-03-21T20:55:54.220Z,99.90
2019-03-21T21:00:47.102Z,99.90
2019-03-21T21:05:41.606Z,99.90
2019-03-21T21:10:35.487Z,99.90
2019-03-21T21:15:27.880Z,99.90
2019-03-21T21:20:20.443Z,99.90
2019-03-21T21:25:14.331Z,99.90
2019-03-21T21:30:12.827Z,99.90
2019-03-21T21:35:07.352Z,99.90
2019-03-21T21:40:00.030Z,99.90
2019-03-21T21:44:52.971Z,99.90
2019-03-21T21:49:46.237Z,99.90
2019-03-21T21:54:38.973Z,99.90
2019-03-21T21:59:32.506Z,99.90
2019-03-21T22:04:25.159Z,99.90
2019-03-21T22:09:20.845Z,99.90
2019-03-21T22:14:13.284Z,99.90
2019-03-21T22:19:05.476Z,99.90
2019-03-21T22:23:57.907Z,99.90
2019-03-21T22:28:50.633Z,99.90
2019-03-21T22:33:43.238Z,99.90
2019-03-21T22:38:35.777Z,99.90
2019-03-21T22:43:28.305Z,99.90
2019-03-21T22:48:21.123Z,99.90
2019-03-21T22:53:13.522Z,99.90
2019-03-21T22:58:05.813Z,99.90
2019-03-21T23:02:58.517Z,99.90
2019-03-21T23:07:51.021Z,99.90
2019-03-21T23:12:43.857Z,99.90
2019-03-21T23:17:38.561Z,99.90
2019-03-21T23:22:30.952Z,99.90
2019-03-21T23:27:23.492Z,99.90
2019-03-21T23:32:15.773Z,99.90
2019-03-21T23:37:08.354Z,99.90
2019-03-21T23:42:00.867Z,99.90
2019-03-21T23:47:12.786Z,99.90
2019-03-21T23:52:05.277Z,99.90
2019-03-21T23:57:04.831Z,99.90
